Time,TemperatureF,DewpointF,PressureIn,WindDirection,WindDirectionDegrees,WindSpeedMPH,WindSpeedGustMPH,Humidity,HourlyPrecipIn,Conditions,Clouds,dailyrainin,SolarRadiationWatts/m^2,SoftwareType,DateUTC
2013-05-23 06:55:00,37.4,36.9,30.07,West,266,0.0,0.0,98,0.00,,,0.01,79,Wunderground v.1.15,2013-05-23 13:55:00,
2013-05-23 07:00:00,37.6,37.1,30.07,West,266,0.0,0.0,98,0.00,,,0.01,86,Wunderground v.1.15,2013-05-23 14:00:00,
2013-05-23 07:10:00,37.8,37.3,30.07,West,266,0.0,1.0,98,0.00,,,0.01,109,Wunderground v.1.15,2013-05-23 14:10:00,
2013-05-23 07:15:00,37.9,37.4,30.07,West,266,0.0,1.0,98,0.00,,,0.01,120,Wunderground v.1.15,2013-05-23 14:15:00,
2013-05-23 07:20:00,38.2,37.7,30.07,West,266,0.0,1.0,98,0.00,,,0.01,123,Wunderground v.1.15,2013-05-23 14:20:00,
2013-05-23 07:25:00,38.4,37.9,30.07,West,266,0.0,2.0,98,0.00,,,0.01,111,Wunderground v.1.15,2013-05-23 14:25:00,
2013-05-23 07:30:00,38.6,38.1,30.07,ENE,63,0.0,1.0,98,0.00,,,0.01,123,Wunderground v.1.15,2013-05-23 14:30:00,
2013-05-23 07:35:00,38.7,38.2,30.06,ENE,62,1.0,1.0,98,0.00,,,0.01,116,Wunderground v.1.15,2013-05-23 14:35:00,
2013-05-23 07:40:00,38.9,38.4,30.06,ENE,62,1.0,1.0,98,0.00,,,0.01,104,Wunderground v.1.15,2013-05-23 14:40:00,
2013-05-23 07:45:00,39.1,38.6,30.07,ENE,62,1.0,3.0,98,0.00,,,0.01,204,Wunderground v.1.15,2013-05-23 14:45:00,
2013-05-23 07:55:00,40.4,39.6,30.07,ENE,62,0.0,3.0,97,0.00,,,0.01,221,Wunderground v.1.15,2013-05-23 14:55:00,
2013-05-23 08:00:00,40.8,39.5,30.07,ENE,62,0.0,3.0,95,0.00,,,0.01,193,Wunderground v.1.15,2013-05-23 15:00:00,
2013-05-23 08:05:00,40.9,39.3,30.07,ENE,62,1.0,3.0,94,0.00,,,0.01,209,Wunderground v.1.15,2013-05-23 15:05:00,
2013-05-23 08:10:00,40.7,38.6,30.06,ENE,69,1.0,1.0,92,0.00,,,0.01,195,Wunderground v.1.15,2013-05-23 15:10:00,
2013-05-23 08:15:00,40.9,39.0,30.07,North,351,1.0,2.0,93,0.00,,,0.01,225,Wunderground v.1.15,2013-05-23 15:15:00,
2013-05-23 08:25:00,41.9,39.7,30.07,North,351,1.0,3.0,92,0.00,,,0.01,274,Wunderground v.1.15,2013-05-23 15:25:00,
2013-05-23 08:30:00,42.1,39.9,30.07,North,351,1.0,1.0,92,0.00,,,0.01,234,Wunderground v.1.15,2013-05-23 15:30:00,
2013-05-23 08:35:00,42.1,39.4,30.07,NNE,14,0.0,2.0,90,0.00,,,0.01,172,Wunderground v.1.15,2013-05-23 15:35:00,
2013-05-23 08:40:00,41.7,39.0,30.07,NNE,14,1.0,1.0,90,0.00,,,0.01,232,Wunderground v.1.15,2013-05-23 15:40:00,
2013-05-23 08:45:00,42.1,39.4,30.07,NNE,14,1.0,3.0,90,0.00,,,0.01,230,Wunderground v.1.15,2013-05-23 15:45:00,
2013-05-23 08:55:00,43.3,40.0,30.06,NNE,14,0.0,3.0,88,0.00,,,0.01,190,Wunderground v.1.15,2013-05-23 15:55:00,
2013-05-23 09:00:00,42.9,39.6,30.06,NNE,14,0.0,3.0,88,0.00,,,0.01,353,Wunderground v.1.15,2013-05-23 16:00:00,
2013-05-23 09:05:00,43.9,40.3,30.06,NNE,14,0.0,3.0,87,0.00,,,0.01,603,Wunderground v.1.15,2013-05-23 16:05:00,
2013-05-23 09:10:00,45.8,40.9,30.06,North,5,0.0,2.0,83,0.00,,,0.01,610,Wunderground v.1.15,2013-05-23 16:10:00,
2013-05-23 09:15:00,46.1,41.2,30.06,NNE,17,0.0,2.0,83,0.00,,,0.01,617,Wunderground v.1.15,2013-05-23 16:15:00,
2013-05-23 09:20:00,46.1,41.2,30.06,WNW,292,1.0,1.0,83,0.00,,,0.01,596,Wunderground v.1.15,2013-05-23 16:20:00,
2013-05-23 09:30:00,46.9,40.7,30.06,ESE,113,1.0,2.0,79,0.00,,,0.01,578,Wunderground v.1.15,2013-05-23 16:30:00,
2013-05-23 09:35:00,46.6,41.1,30.05,WNW,288,1.0,3.0,81,0.00,,,0.01,265,Wunderground v.1.15,2013-05-23 16:35:00,
2013-05-23 09:40:00,47.0,41.1,30.05,East,92,1.0,4.0,80,0.00,,,0.01,151,Wunderground v.1.15,2013-05-23 16:40:00,
2013-05-23 09:45:00,47.0,40.5,30.05,NNW,344,2.0,4.0,78,0.00,,,0.01,79,Wunderground v.1.15,2013-05-23 16:45:00,
2013-05-23 09:50:00,47.3,40.8,30.05,ENE,57,2.0,2.0,78,0.00,,,0.01,90,Wunderground v.1.15,2013-05-23 16:50:00,
2013-05-23 10:00:00,47.8,40.9,30.05,WNW,284,1.0,4.0,77,0.00,,,0.01,251,Wunderground v.1.15,2013-05-23 17:00:00,
2013-05-23 10:05:00,48.3,40.7,30.05,ESE,105,1.0,4.0,75,0.00,,,0.01,281,Wunderground v.1.15,2013-05-23 17:05:00,
2013-05-23 10:15:00,48.6,40.7,30.05,SSW,202,2.0,5.0,74,0.00,,,0.01,766,Wunderground v.1.15,2013-05-23 17:15:00,
2013-05-23 10:20:00,50.2,42.6,30.05,WSW,242,2.0,2.0,75,0.00,,,0.01,772,Wunderground v.1.15,2013-05-23 17:20:00,
2013-05-23 10:30:00,51.1,41.3,30.05,NNE,26,1.0,5.0,69,0.00,,,0.01,795,Wunderground v.1.15,2013-05-23 17:30:00,
2013-05-23 10:35:00,51.2,39.8,30.04,ENE,70,1.0,5.0,65,0.00,,,0.01,803,Wunderground v.1.15,2013-05-23 17:35:00,
2013-05-23 10:40:00,51.1,38.9,30.04,ENE,69,1.0,5.0,63,0.00,,,0.01,810,Wunderground v.1.15,2013-05-23 17:40:00,
2013-05-23 10:45:00,51.7,39.1,30.04,NNW,327,1.0,5.0,62,0.00,,,0.01,817,Wunderground v.1.15,2013-05-23 17:45:00,
2013-05-23 10:50:00,51.7,39.1,30.03,ENE,57,1.0,5.0,62,0.00,,,0.01,849,Wunderground v.1.15,2013-05-23 17:50:00,
2013-05-23 10:55:00,52.9,39.8,30.03,NNE,13,1.0,5.0,61,0.00,,,0.01,853,Wunderground v.1.15,2013-05-23 17:55:00,
2013-05-23 11:05:00,54.2,39.3,30.03,SE,126,1.0,5.0,57,0.00,,,0.01,963,Wunderground v.1.15,2013-05-23 18:05:00,
2013-05-23 11:10:00,53.6,39.2,30.03,East,94,1.0,5.0,58,0.00,,,0.01,974,Wunderground v.1.15,2013-05-23 18:10:00,
2013-05-23 11:15:00,53.5,38.6,30.03,South,173,1.0,5.0,57,0.00,,,0.01,1071,Wunderground v.1.15,2013-05-23 18:15:00,
2013-05-23 11:20:00,53.1,37.8,30.03,SSE,153,2.0,2.0,56,0.00,,,0.01,258,Wunderground v.1.15,2013-05-23 18:20:00,
2013-05-23 11:25:00,54.0,39.1,30.03,North,360,1.0,3.0,57,0.00,,,0.01,1078,Wunderground v.1.15,2013-05-23 18:25:00,
2013-05-23 11:30:00,54.8,38.5,30.03,North,360,2.0,2.0,54,0.00,,,0.01,193,Wunderground v.1.15,2013-05-23 18:30:00,
2013-05-23 11:35:00,53.6,38.3,30.03,WNW,299,2.0,5.0,56,0.00,,,0.01,297,Wunderground v.1.15,2013-05-23 18:35:00,
2013-05-23 11:40:00,53.9,38.6,30.03,WNW,298,1.0,7.0,56,0.00,,,0.01,339,Wunderground v.1.15,2013-05-23 18:40:00,
2013-05-23 11:45:00,54.1,40.1,30.03,ESE,104,1.0,7.0,59,0.00,,,0.01,1137,Wunderground v.1.15,2013-05-23 18:45:00,
2013-05-23 11:50:00,54.6,37.8,30.03,South,175,2.0,2.0,53,0.00,,,0.01,715,Wunderground v.1.15,2013-05-23 18:50:00,
2013-05-23 11:55:00,54.6,37.8,30.02,South,174,2.0,7.0,53,0.00,,,0.01,378,Wunderground v.1.15,2013-05-23 18:55:00,
2013-05-23 12:05:00,54.7,37.9,30.02,WNW,288,1.0,7.0,53,0.00,,,0.01,345,Wunderground v.1.15,2013-05-23 19:05:00,
2013-05-23 12:10:00,54.8,37.5,30.02,WSW,252,1.0,1.0,52,0.00,,,0.01,350,Wunderground v.1.15,2013-05-23 19:10:00,
2013-05-23 12:20:00,54.3,36.5,30.02,SW,220,1.0,1.0,51,0.00,,,0.01,272,Wunderground v.1.15,2013-05-23 19:20:00,
2013-05-23 12:25:00,54.3,37.5,30.02,WNW,295,1.0,7.0,53,0.00,,,0.01,232,Wunderground v.1.15,2013-05-23 19:25:00,
2013-05-23 12:30:00,54.5,37.2,30.02,NNW,336,2.0,2.0,52,0.00,,,0.01,255,Wunderground v.1.15,2013-05-23 19:30:00,
2013-05-23 12:40:00,53.9,36.7,30.02,SW,217,1.0,6.0,52,0.00,,,0.01,311,Wunderground v.1.15,2013-05-23 19:40:00,
2013-05-23 12:50:00,54.1,37.8,30.02,WSW,252,1.0,6.0,54,0.00,,,0.01,343,Wunderground v.1.15,2013-05-23 19:50:00,
2013-05-23 13:00:00,54.1,36.4,30.02,WSW,250,1.0,1.0,51,0.00,,,0.01,348,Wunderground v.1.15,2013-05-23 20:00:00,
2013-05-23 13:05:00,54.1,36.4,30.02,SW,224,0.0,6.0,51,0.00,,,0.01,378,Wunderground v.1.15,2013-05-23 20:05:00,
2013-05-23 13:10:00,54.9,37.6,30.02,WSW,240,1.0,1.0,52,0.00,,,0.01,439,Wunderground v.1.15,2013-05-23 20:10:00,
2013-05-23 13:15:00,56.3,38.4,30.02,NNW,333,1.0,2.0,51,0.00,,,0.01,617,Wunderground v.1.15,2013-05-23 20:15:00,
2013-05-23 13:20:00,56.7,38.3,30.02,NNW,343,1.0,1.0,50,0.00,,,0.01,599,Wunderground v.1.15,2013-05-23 20:20:00,
2013-05-23 13:25:00,56.0,37.6,30.02,WSW,249,1.0,4.0,50,0.00,,,0.01,420,Wunderground v.1.15,2013-05-23 20:25:00,
2013-05-23 13:30:00,55.8,37.4,30.02,West,259,2.0,2.0,50,0.00,,,0.01,339,Wunderground v.1.15,2013-05-23 20:30:00,
2013-05-23 13:40:00,55.3,36.5,30.02,NNW,343,2.0,2.0,49,0.00,,,0.01,304,Wunderground v.1.15,2013-05-23 20:40:00,
2013-05-23 13:50:00,55.3,37.0,30.01,SE,134,1.0,1.0,50,0.00,,,0.01,309,Wunderground v.1.15,2013-05-23 20:50:00,
2013-05-23 14:00:00,55.0,36.7,30.01,SSE,150,1.0,5.0,50,0.00,,,0.01,355,Wunderground v.1.15,2013-05-23 21:00:00,
2013-05-23 14:05:00,55.6,38.7,30.01,ESE,117,1.0,5.0,53,0.00,,,0.01,346,Wunderground v.1.15,2013-05-23 21:05:00,
2013-05-23 14:10:00,56.6,39.2,30.01,ENE,71,0.0,4.0,52,0.00,,,0.01,367,Wunderground v.1.15,2013-05-23 21:10:00,
2013-05-23 14:20:00,56.8,36.8,30.01,NNW,327,1.0,1.0,47,0.00,,,0.01,304,Wunderground v.1.15,2013-05-23 21:20:00,
2013-05-23 14:30:00,56.6,37.6,30.01,NW,315,1.0,4.0,49,0.00,,,0.01,487,Wunderground v.1.15,2013-05-23 21:30:00,
2013-05-23 14:40:00,56.6,37.6,30.01,East,92,2.0,2.0,49,0.00,,,0.01,415,Wunderground v.1.15,2013-05-23 21:40:00,
2013-05-23 14:50:00,57.5,39.5,30.01,SSE,154,2.0,6.0,51,0.00,,,0.01,404,Wunderground v.1.15,2013-05-23 21:50:00,
2013-05-23 15:00:00,58.4,39.8,30.01,NNW,334,2.0,6.0,50,0.00,,,0.01,1106,Wunderground v.1.15,2013-05-23 22:00:00,
2013-05-23 15:10:00,56.1,36.1,30.01,South,180,2.0,2.0,47,0.00,,,0.01,267,Wunderground v.1.15,2013-05-23 22:10:00,
2013-05-23 15:15:00,55.9,37.0,30.01,ESE,120,1.0,8.0,49,0.00,,,0.01,195,Wunderground v.1.15,2013-05-23 22:15:00,
2013-05-23 15:20:00,57.3,38.3,30.01,NNE,32,1.0,1.0,49,0.00,,,0.01,807,Wunderground v.1.15,2013-05-23 22:20:00,
2013-05-23 15:25:00,58.9,39.2,30.01,NW,315,1.0,2.0,48,0.00,,,0.01,798,Wunderground v.1.15,2013-05-23 22:25:00,
2013-05-23 15:30:00,59.4,38.0,30.01,NW,311,2.0,8.0,45,0.00,,,0.01,784,Wunderground v.1.15,2013-05-23 22:30:00,
2013-05-23 15:35:00,58.8,38.6,30.01,West,279,3.0,8.0,47,0.00,,,0.01,784,Wunderground v.1.15,2013-05-23 22:35:00,
2013-05-23 15:45:00,58.5,37.8,30.00,West,260,2.0,8.0,46,0.00,,,0.01,854,Wunderground v.1.15,2013-05-23 22:45:00,
2013-05-23 15:50:00,59.1,37.8,30.00,NNW,333,2.0,8.0,45,0.00,,,0.01,817,Wunderground v.1.15,2013-05-23 22:50:00,
2013-05-23 15:55:00,59.8,39.0,30.00,North,355,2.0,8.0,46,0.00,,,0.01,844,Wunderground v.1.15,2013-05-23 22:55:00,
2013-05-23 16:00:00,59.8,37.2,30.00,NE,35,2.0,2.0,43,0.00,,,0.01,856,Wunderground v.1.15,2013-05-23 23:00:00,
2013-05-23 16:05:00,59.2,36.1,30.00,ESE,103,1.0,3.0,42,0.00,,,0.01,863,Wunderground v.1.15,2013-05-23 23:05:00,
2013-05-23 16:15:00,59.6,37.6,30.00,NNW,340,2.0,6.0,44,0.00,,,0.01,784,Wunderground v.1.15,2013-05-23 23:15:00,
2013-05-23 16:20:00,60.8,38.1,30.00,WNW,298,2.0,6.0,43,0.00,,,0.01,777,Wunderground v.1.15,2013-05-23 23:20:00,
2013-05-23 16:25:00,61.1,37.8,30.00,North,360,2.0,6.0,42,0.00,,,0.01,772,Wunderground v.1.15,2013-05-23 23:25:00,
2013-05-23 16:30:00,60.3,36.5,30.00,East,82,2.0,2.0,41,0.00,,,0.01,754,Wunderground v.1.15,2013-05-23 23:30:00,
2013-05-23 16:35:00,60.0,37.4,30.00,NE,36,1.0,5.0,43,0.00,,,0.01,744,Wunderground v.1.15,2013-05-23 23:35:00,
2013-05-23 16:40:00,59.0,35.3,30.00,ENE,59,2.0,6.0,41,0.00,,,0.01,346,Wunderground v.1.15,2013-05-23 23:40:00,
2013-05-23 16:50:00,58.7,36.2,30.00,SE,143,2.0,2.0,43,0.00,,,0.01,729,Wunderground v.1.15,2013-05-23 23:50:00,
2013-05-23 17:00:00,60.2,37.0,30.00,NE,49,2.0,6.0,42,0.00,,,0.01,687,Wunderground v.1.15,2013-05-24 00:00:00,
2013-05-23 17:10:00,60.0,37.4,30.00,NNE,30,2.0,2.0,43,0.00,,,0.01,290,Wunderground v.1.15,2013-05-24 00:10:00,
2013-05-23 17:15:00,60.5,37.3,30.00,NE,45,2.0,4.0,42,0.00,,,0.01,570,Wunderground v.1.15,2013-05-24 00:15:00,
2013-05-23 17:25:00,59.7,37.2,30.00,NE,36,1.0,6.0,43,0.00,,,0.01,540,Wunderground v.1.15,2013-05-24 00:25:00,
2013-05-23 17:35:00,59.9,36.1,29.99,North,360,2.0,6.0,41,0.00,,,0.01,123,Wunderground v.1.15,2013-05-24 00:35:00,
2013-05-23 17:40:00,59.6,35.9,29.99,NNW,330,1.0,1.0,41,0.00,,,0.01,130,Wunderground v.1.15,2013-05-24 00:40:00,
2013-05-23 17:50:00,59.2,36.1,29.99,NNW,343,0.0,6.0,42,0.00,,,0.01,84,Wunderground v.1.15,2013-05-24 00:50:00,
2013-05-23 17:55:00,58.9,36.4,29.99,NNW,343,0.0,6.0,43,0.00,,,0.01,81,Wunderground v.1.15,2013-05-24 00:55:00,
2013-05-23 18:00:00,58.7,36.8,29.99,NNW,343,0.0,6.0,44,0.00,,,0.01,202,Wunderground v.1.15,2013-05-24 01:00:00,
2013-05-23 18:05:00,59.1,36.0,29.99,NNW,343,1.0,6.0,42,0.00,,,0.01,381,Wunderground v.1.15,2013-05-24 01:05:00,
2013-05-23 18:10:00,59.8,36.0,29.98,NNW,343,1.0,3.0,41,0.00,,,0.01,373,Wunderground v.1.15,2013-05-24 01:10:00,
2013-05-23 18:15:00,60.3,35.2,29.98,NNW,340,1.0,3.0,39,0.00,,,0.01,355,Wunderground v.1.15,2013-05-24 01:15:00,
2013-05-23 18:20:00,60.6,34.2,29.98,NNW,340,1.0,3.0,37,0.00,,,0.01,338,Wunderground v.1.15,2013-05-24 01:20:00,
2013-05-23 18:25:00,60.5,33.4,29.98,NE,44,1.0,3.0,36,0.00,,,0.01,315,Wunderground v.1.15,2013-05-24 01:25:00,
2013-05-23 18:30:00,59.9,32.9,29.98,NNE,23,1.0,1.0,36,0.00,,,0.01,297,Wunderground v.1.15,2013-05-24 01:30:00,
2013-05-23 18:35:00,60.2,33.1,29.98,NNW,330,1.0,2.0,36,0.00,,,0.01,281,Wunderground v.1.15,2013-05-24 01:35:00,
2013-05-23 18:40:00,60.3,32.5,29.98,NNW,333,1.0,4.0,35,0.00,,,0.01,258,Wunderground v.1.15,2013-05-24 01:40:00,
2013-05-23 18:45:00,60.4,35.3,29.98,NNW,333,1.0,4.0,39,0.00,,,0.01,234,Wunderground v.1.15,2013-05-24 01:45:00,
2013-05-23 18:55:00,60.0,35.6,29.97,NNW,339,1.0,4.0,40,0.00,,,0.01,202,Wunderground v.1.15,2013-05-24 01:55:00,
2013-05-23 19:00:00,59.3,36.2,29.97,NNW,339,1.0,4.0,42,0.00,,,0.01,51,Wunderground v.1.15,2013-05-24 02:00:00,
2013-05-23 19:05:00,58.1,35.1,29.97,NNW,339,1.0,4.0,42,0.00,,,0.01,28,Wunderground v.1.15,2013-05-24 02:05:00,
2013-05-23 19:10:00,57.1,35.9,29.97,NNW,339,1.0,3.0,45,0.00,,,0.01,26,Wunderground v.1.15,2013-05-24 02:10:00,
2013-05-23 19:20:00,55.7,34.7,29.96,NNW,339,1.0,1.0,45,0.00,,,0.01,23,Wunderground v.1.15,2013-05-24 02:20:00,
2013-05-23 19:30:00,55.0,36.7,29.96,NNW,339,0.0,3.0,50,0.00,,,0.01,19,Wunderground v.1.15,2013-05-24 02:30:00,
2013-05-23 19:40:00,54.4,37.1,29.96,NNW,339,0.0,2.0,52,0.00,,,0.01,19,Wunderground v.1.15,2013-05-24 02:40:00,
2013-05-23 19:45:00,54.0,37.2,29.96,NNW,339,0.0,2.0,53,0.00,,,0.01,18,Wunderground v.1.15,2013-05-24 02:45:00,
2013-05-23 19:55:00,53.1,37.3,29.96,NNW,339,0.0,2.0,55,0.00,,,0.01,14,Wunderground v.1.15,2013-05-24 02:55:00,